CDT,Max TemperatureF,Mean TemperatureF,Min TemperatureF,Max Dew PointF,MeanDew PointF,Min DewpointF,Max Humidity, Mean Humidity, Min Humidity, Max Sea Level PressureIn, Mean Sea Level PressureIn, Min Sea Level PressureIn, Max VisibilityMiles, Mean VisibilityMiles, Min VisibilityMiles, Max Wind SpeedMPH, Mean Wind SpeedMPH, Max Gust SpeedMPH,PrecipitationIn, CloudCover, Events, WindDirDegrees
2013-9-1,77,68,60,68,62,57,100,78,54,30.02,29.92,29.79,10,10,5,22,11,37,0.02,1,Rain,342
2013-9-2,73,62,50,57,54,50,100,77,47,30.11,30.06,30.02,10,10,4,12,6,18,0.00,0,,4
2013-9-3,80,65,50,66,58,50,100,80,51,30.11,30.06,30.02,10,10,7,9,6,12,0.00,0,,178
2013-9-4,86,72,59,66,62,59,100,72,40,30.15,30.11,30.05,10,10,9,13,7,15,0.00,0,,208
2013-9-5,82,75,68,68,65,61,88,73,51,30.19,30.16,30.11,10,10,7,14,7,20,0.00,3,,202
2013-9-6,87,76,66,70,66,63,94,73,49,30.11,30.01,29.91,10,10,9,22,10,29,0.00,0,,178
2013-9-7,82,76,69,75,70,66,100,84,74,29.95,29.92,29.87,10,9,6,13,7,16,0.00,0,,203
2013-9-8,80,74,68,73,70,68,100,92,74,29.98,29.91,29.84,8,5,3,17,9,21,0.00,2,,82
2013-9-9,95,80,66,70,65,61,100,67,34,29.84,29.79,29.74,10,7,0,23,10,33,0.00,2,Fog,200
2013-9-10,84,74,64,68,63,61,88,70,51,30.04,29.95,29.85,10,10,7,15,5,20,0.00,2,,318
2013-9-11,82,74,66,66,61,55,100,69,39,30.12,30.09,30.04,10,10,9,10,5,15,0.00,2,,298
2013-9-12,75,67,59,59,50,45,78,57,34,30.25,30.19,30.11,10,10,10,16,10,25,0.00,0,,12
2013-9-13,71,60,48,50,46,43,87,62,35,30.25,30.18,30.09,10,10,10,9,6,13,0.00,0,,71
2013-9-14,73,60,48,57,48,43,88,66,41,30.09,29.99,29.85,10,10,7,22,10,29,0.00,2,Rain,178
2013-9-15,66,60,55,59,54,50,94,75,60,30.27,30.04,29.82,10,10,5,23,14,30,0.00,7,,24
2013-9-16,68,58,48,54,50,48,100,81,49,30.35,30.28,30.21,10,10,10,13,8,24,0.00,4,Rain,96
2013-9-17,66,58,53,66,58,50,100,98,82,30.22,30.06,29.91,10,4,0,15,10,23,0.09,8,Rain,151
2013-9-18,87,76,66,70,68,66,100,80,52,29.90,29.77,29.71,10,8,2,22,14,29,0.00,4,,179
2013-9-19,77,67,57,68,62,48,88,74,52,29.95,29.78,29.67,10,10,6,24,13,33,0.02,2,Rain,258
2013-9-20,66,55,42,52,45,39,100,73,40,30.02,29.97,29.94,10,10,10,20,11,30,0.00,2,,306
2013-9-21,73,57,41,48,42,37,93,63,29,30.02,29.95,29.88,10,10,10,9,6,13,0.00,0,,228
2013-9-22,80,64,48,54,50,46,100,65,34,29.90,29.86,29.81,10,10,10,25,10,32,0.00,0,,164
2013-9-23,77,64,50,52,49,46,94,66,34,29.87,29.83,29.77,10,10,10,22,11,32,0.00,0,,147
2013-9-24,69,62,55,55,53,50,100,79,56,29.92,29.88,29.82,10,10,4,12,7,14,0.00,2,Rain,88
2013-9-25,77,62,48,59,53,48,100,75,41,29.94,29.88,29.79,10,10,6,15,7,21,0.00,0,,128
2013-9-26,86,72,57,63,59,55,100,71,35,29.86,29.81,29.77,10,8,3,25,14,36,0.00,0,,152
2013-9-27,87,76,66,63,59,55,83,63,33,29.87,29.82,29.77,10,10,6,26,15,40,0.00,0,Rain,161
2013-9-28,69,58,48,64,51,41,100,75,45,30.02,29.85,29.67,10,9,2,22,14,29,0.22,4,Rain,251
2013-9-29,77,62,46,45,41,39,81,54,26,30.02,29.94,29.85,10,10,10,23,11,31,0.00,0,,201
2013-9-30,80,68,57,50,48,45,67,52,32,29.84,29.74,29.65,10,10,10,24,16,33,0.00,0,,197